Terminal Aerodrome Forecast
Issued by NWS Quad Cities IA IL

Home | Current Version | Previous Version | Text Only | Print | Product List | Glossary On
Versions: 1 2 3 4 5 6 7 8 9 10 11 12 13
000
FTUS43 KDVN 111100
TAFDBQ
TAF
KDBQ 111128Z 1112/1212 18008KT P6SM VCSH FEW040 BKN110
     FM111500 18011KT P6SM SCT120 BKN200
     FM112100 18011KT P6SM VCTS SCT050CB BKN150
     FM120400 17006KT 6SM -RA BR VCTS BKN050CB=

USA.gov is the U.S. government's official web portal to all federal, state and local government web resources and services.